Time;durP1;ratioP1;P1;durP2;ratioP2;P2;SDS_P1;SDS_P2;PMS_P1;PMS_P2;Temp;Humidity;BMP_temperature;BMP_pressure;BME280_temperature;BME280_humidity;BME280_pressure;Samples;Min_cycle;Max_cycle;Signal;HPM_P1;HPM_P2
2024/04/04 00:00:56;;;;;;;;;5.00;3.00;;;;;15.86;83.39;100602.00;5101024;27;48273;-78
2024/04/04 00:03:22;;;;;;;;;5.00;3.00;;;;;15.87;83.39;100594.78;5087575;27;45254;-78
2024/04/04 00:05:53;;;;;;;;;3.50;2.25;;;;;15.84;83.56;100590.47;5082173;27;54817;-78
2024/04/04 00:08:18;;;;;;;;;2.75;2.50;;;;;15.86;83.80;100588.53;5102547;27;45386;-78
2024/04/04 00:10:44;;;;;;;;;4.75;4.00;;;;;15.82;83.79;100586.09;5099800;27;45352;-78
2024/04/04 00:13:09;;;;;;;;;5.50;3.00;;;;;15.86;83.78;100585.84;5101844;27;58881;-78
2024/04/04 00:15:39;;;;;;;;;3.75;2.75;;;;;15.81;83.71;100570.94;5100324;27;65203;-78
2024/04/04 00:18:04;;;;;;;;;7.00;4.50;;;;;15.89;83.89;100591.06;5101592;27;45434;-78
2024/04/04 00:20:29;;;;;;;;;6.25;1.50;;;;;15.70;83.97;100545.47;5101603;27;46228;-78
2024/04/04 00:22:55;;;;;;;;;7.00;3.50;;;;;15.87;84.22;100567.88;5090871;27;46008;-78
2024/04/04 00:25:20;;;;;;;;;5.00;4.00;;;;;15.90;84.00;100576.66;5100590;27;45330;-78
2024/04/04 00:27:45;;;;;;;;;4.00;2.00;;;;;15.84;84.20;100560.00;5102206;27;45375;-78
2024/04/04 00:30:11;;;;;;;;;1.75;1.75;;;;;15.82;84.44;100565.47;5087834;27;50865;-79
2024/04/04 00:32:36;;;;;;;;;4.25;2.75;;;;;15.78;84.37;100544.19;5084938;27;45409;-78
2024/04/04 00:35:01;;;;;;;;;4.50;3.00;;;;;15.84;84.79;100557.31;5098945;27;45279;-78
2024/04/04 00:37:27;;;;;;;;;3.00;3.00;;;;;15.87;84.66;100549.03;5101911;27;45474;-78
2024/04/04 00:39:52;;;;;;;;;7.00;4.00;;;;;15.90;84.31;100549.75;5101093;27;45394;-78
2024/04/04 00:42:17;;;;;;;;;3.25;3.00;;;;;15.89;84.70;100537.22;5101848;27;45403;-78
2024/04/04 00:44:43;;;;;;;;;5.00;4.00;;;;;15.85;84.52;100532.97;5096357;27;45319;-78
2024/04/04 00:47:08;;;;;;;;;7.00;3.75;;;;;15.87;84.66;100544.53;5093981;27;45622;-78
2024/04/04 00:49:34;;;;;;;;;4.75;3.00;;;;;15.82;84.96;100533.16;5098522;27;60954;-78
2024/04/04 00:52:01;;;;;;;;;5.50;3.00;;;;;15.78;84.91;100528.91;5100643;27;46218;-78
2024/04/04 00:54:26;;;;;;;;;3.00;2.75;;;;;15.81;85.07;100519.78;5101741;27;45400;-78
2024/04/04 00:56:52;;;;;;;;;3.75;2.00;;;;;15.80;85.13;100510.84;5101563;27;45335;-78
2024/04/04 00:59:18;;;;;;;;;7.00;3.75;;;;;15.85;85.26;100527.59;5101340;27;45457;-78
2024/04/04 01:01:43;;;;;;;;;5.25;4.00;;;;;15.81;85.52;100515.28;5090280;27;45488;-78
2024/04/04 01:04:10;;;;;;;;;3.00;3.00;;;;;15.77;85.51;100500.28;5097548;27;45392;-78
2024/04/04 01:06:38;;;;;;;;;6.25;4.00;;;;;15.82;85.73;100519.72;5101531;27;45459;-79
2024/04/04 01:09:03;;;;;;;;;6.00;4.00;;;;;15.79;85.58;100508.25;5080063;27;46471;-79
2024/04/04 01:11:29;;;;;;;;;2.00;1.50;;;;;15.78;85.69;100507.38;5101535;27;45340;-79
2024/04/04 01:13:54;;;;;;;;;3.75;3.00;;;;;15.78;85.83;100499.28;5101287;27;45322;-78
2024/04/04 01:16:20;;;;;;;;;9.75;3.75;;;;;15.66;85.98;100481.16;5100341;27;45447;-78
2024/04/04 01:18:46;;;;;;;;;3.50;3.00;;;;;15.80;85.72;100493.84;5100613;27;46069;-78
2024/04/04 01:21:11;;;;;;;;;4.00;2.75;;;;;15.77;85.86;100494.88;5097038;27;45454;-78
2024/04/04 01:23:43;;;;;;;;;4.50;3.25;;;;;15.79;86.12;100487.59;5093375;27;45305;-78
2024/04/04 01:26:09;;;;;;;;;3.25;2.25;;;;;15.82;86.42;100495.50;5087665;27;56875;-78
2024/04/04 01:28:34;;;;;;;;;2.00;1.00;;;;;15.78;86.63;100488.53;5096060;27;45282;-78
2024/04/04 01:31:00;;;;;;;;;3.75;3.00;;;;;15.67;86.80;100475.69;5091530;27;45269;-79
2024/04/04 01:33:25;;;;;;;;;5.00;3.25;;;;;15.75;86.88;100488.69;5100965;27;45503;-78
2024/04/04 01:35:50;;;;;;;;;4.75;3.00;;;;;15.70;87.33;100474.63;5100610;27;45613;-79
2024/04/04 01:38:16;;;;;;;;;5.25;2.50;;;;;15.74;87.31;100493.19;5090078;27;46322;-78
2024/04/04 01:40:41;;;;;;;;;4.00;3.00;;;;;15.73;87.47;100501.34;5090602;27;61630;-78
2024/04/04 01:43:06;;;;;;;;;5.25;2.75;;;;;15.71;87.52;100481.75;5100582;27;47166;-78
2024/04/04 01:45:32;;;;;;;;;5.00;4.00;;;;;15.62;87.29;100474.19;5088692;27;45363;-78
2024/04/04 01:47:57;;;;;;;;;5.00;2.50;;;;;15.67;87.61;100475.69;5087134;27;50605;-78
2024/04/04 01:50:22;;;;;;;;;3.25;3.25;;;;;15.52;87.37;100453.22;5099657;27;67142;-78
2024/04/04 01:52:47;;;;;;;;;5.25;5.00;;;;;15.63;87.58;100465.19;5100159;27;45327;-78
2024/04/04 01:55:13;;;;;;;;;4.75;2.25;;;;;15.63;87.46;100475.94;5091462;27;62915;-78
2024/04/04 01:57:38;;;;;;;;;6.00;4.00;;;;;15.57;87.41;100451.13;5097824;27;54322;-78
2024/04/04 02:00:04;;;;;;;;;4.50;3.50;;;;;15.56;87.44;100449.38;5100150;27;53068;-78
2024/04/04 02:02:29;;;;;;;;;5.00;3.50;;;;;15.59;87.29;100436.75;5068789;27;45299;-78
2024/04/04 02:04:54;;;;;;;;;2.25;1.50;;;;;15.51;87.52;100439.84;5080180;27;62036;-77
2024/04/04 02:07:19;;;;;;;;;7.00;4.25;;;;;15.55;87.38;100433.34;5099376;27;68678;-78
2024/04/04 02:09:45;;;;;;;;;5.00;3.00;;;;;15.46;87.35;100417.75;5082679;27;59470;-78
2024/04/04 02:12:10;;;;;;;;;3.00;3.00;;;;;15.56;87.39;100441.31;5093123;27;51264;-78
2024/04/04 02:14:36;;;;;;;;;4.50;2.25;;;;;15.55;87.12;100433.34;5074140;27;56984;-78
2024/04/04 02:17:01;;;;;;;;;3.25;2.00;;;;;15.48;87.35;100416.69;5099864;27;46177;-78
2024/04/04 02:19:26;;;;;;;;;3.50;2.00;;;;;15.53;87.36;100421.81;5100107;27;45408;-78
2024/04/04 02:21:52;;;;;;;;;3.00;3.00;;;;;15.48;87.47;100414.00;5094163;27;45518;-78
2024/04/04 02:24:17;;;;;;;;;3.25;2.75;;;;;15.53;87.50;100419.09;5094197;27;45219;-78
2024/04/04 02:26:42;;;;;;;;;4.00;3.00;;;;;15.53;87.43;100413.72;5099937;27;46282;-78
2024/04/04 02:29:08;;;;;;;;;3.00;2.00;;;;;15.51;87.52;100421.88;5091140;27;45329;-78
2024/04/04 02:31:33;;;;;;;;;4.50;2.25;;;;;15.50;87.79;100404.03;5094203;27;45386;-78
2024/04/04 02:33:59;;;;;;;;;1.00;1.00;;;;;15.52;87.92;100418.25;5099696;27;45309;-78
2024/04/04 02:36:28;;;;;;;;;4.75;3.25;;;;;15.47;87.87;100403.31;5098876;27;46040;-78
2024/04/04 02:38:53;;;;;;;;;2.50;1.50;;;;;15.42;88.12;100395.53;5099642;27;45488;-78
2024/04/04 02:41:19;;;;;;;;;6.25;2.25;;;;;15.43;87.97;100424.16;5077959;27;45562;-78
2024/04/04 02:43:44;;;;;;;;;4.00;1.50;;;;;15.41;88.06;100404.56;5088819;27;45455;-78
2024/04/04 02:46:10;;;;;;;;;1.75;1.50;;;;;15.46;87.90;100410.53;5099762;27;45251;-78
2024/04/04 02:48:36;;;;;;;;;3.00;3.00;;;;;15.48;87.90;100403.22;5089493;27;45437;-78
2024/04/04 02:51:02;;;;;;;;;5.25;2.00;;;;;15.32;87.99;100375.53;5099874;27;45544;-78
2024/04/04 02:53:28;;;;;;;;;3.00;1.75;;;;;15.51;87.78;100410.28;5100071;27;45325;-78
2024/04/04 02:55:57;;;;;;;;;2.75;2.00;;;;;15.51;87.70;100400.38;5099513;27;45943;-78
2024/04/04 02:58:23;;;;;;;;;2.25;2.00;;;;;15.50;87.91;100413.91;5099873;27;45385;-78
2024/04/04 03:00:50;;;;;;;;;2.50;2.00;;;;;15.43;87.90;100402.63;5099739;27;45418;-78
2024/04/04 03:03:15;;;;;;;;;3.25;3.00;;;;;15.46;88.39;100399.78;5099661;27;45483;-78
2024/04/04 03:05:41;;;;;;;;;5.50;2.75;;;;;15.44;88.55;100401.69;5081913;27;48064;-78
2024/04/04 03:08:07;;;;;;;;;1.50;1.50;;;;;15.42;89.01;100397.34;5102266;27;45318;-78
2024/04/04 03:10:33;;;;;;;;;2.75;2.00;;;;;15.38;88.64;100386.78;5085170;27;45365;-78
2024/04/04 03:12:59;;;;;;;;;3.00;2.00;;;;;15.41;88.99;100391.09;5103432;27;45546;-77
2024/04/04 03:15:25;;;;;;;;;5.00;3.00;;;;;15.37;89.51;100379.66;5103065;27;45253;-78
2024/04/04 03:17:50;;;;;;;;;2.50;2.00;;;;;15.36;89.20;100374.38;5103308;27;45286;-78
2024/04/04 03:20:15;;;;;;;;;1.00;1.00;;;;;15.33;89.41;100372.72;5102740;27;45247;-78
2024/04/04 03:22:41;;;;;;;;;2.75;2.75;;;;;15.35;89.45;100375.31;5088019;27;45718;-78
2024/04/04 03:25:06;;;;;;;;;3.00;2.00;;;;;15.35;89.41;100380.69;5081061;27;46972;-78
2024/04/04 03:27:32;;;;;;;;;4.50;3.00;;;;;15.32;89.66;100371.00;5093524;27;45200;-78
2024/04/04 03:29:57;;;;;;;;;5.25;2.25;;;;;15.28;89.83;100355.97;5087199;27;45487;-78
2024/04/04 03:32:22;;;;;;;;;2.00;2.00;;;;;15.25;89.67;100356.19;5102891;27;45328;-78
2024/04/04 03:34:48;;;;;;;;;3.50;2.75;;;;;15.21;89.63;100353.75;5073316;27;62694;-78
2024/04/04 03:37:13;;;;;;;;;3.50;2.50;;;;;15.27;90.20;100364.13;5101898;27;45435;-78
2024/04/04 03:39:39;;;;;;;;;3.00;2.00;;;;;15.17;90.09;100343.19;5081968;27;45366;-78
2024/04/04 03:42:05;;;;;;;;;1.25;1.25;;;;;15.16;90.46;100344.13;5091236;27;45534;-78
2024/04/04 03:44:31;;;;;;;;;2.50;1.50;;;;;15.12;90.18;100330.97;5085334;27;45953;-79
2024/04/04 03:46:56;;;;;;;;;3.00;1.00;;;;;15.23;90.33;100359.91;5095888;27;45393;-78
2024/04/04 03:49:22;;;;;;;;;1.50;1.50;;;;;15.21;90.20;100351.06;5098012;27;45443;-79
2024/04/04 03:51:48;;;;;;;;;2.00;1.00;;;;;15.22;90.45;100358.16;5102806;27;45532;-79
2024/04/04 03:54:13;;;;;;;;;0.75;0.75;;;;;15.23;90.37;100357.22;5092622;27;47586;-79
2024/04/04 03:56:39;;;;;;;;;3.25;0.25;;;;;15.19;90.50;100341.25;5073833;27;45386;-79
2024/04/04 03:59:04;;;;;;;;;1.50;1.00;;;;;15.18;90.45;100361.06;5084690;27;45397;-78
2024/04/04 04:01:30;;;;;;;;;2.50;1.50;;;;;15.18;90.74;100352.09;5102692;27;46889;-79
2024/04/04 04:03:56;;;;;;;;;3.00;1.00;;;;;15.11;90.92;100351.59;5102129;27;45200;-79
2024/04/04 04:06:21;;;;;;;;;1.50;1.00;;;;;15.11;91.20;100354.28;5098724;27;66978;-79
2024/04/04 04:08:46;;;;;;;;;2.75;1.00;;;;;15.07;91.31;100355.41;5098148;27;46994;-79
2024/04/04 04:11:12;;;;;;;;;2.50;1.00;;;;;15.08;91.18;100367.03;5096653;27;53492;-79
2024/04/04 04:13:37;;;;;;;;;2.00;1.75;;;;;15.08;91.49;100367.03;5085563;27;45401;-79
2024/04/04 04:16:03;;;;;;;;;0.75;0.75;;;;;15.04;91.80;100366.34;5100909;27;49266;-79
2024/04/04 04:18:28;;;;;;;;;1.25;0.50;;;;;15.05;91.91;100378.84;5083423;27;45493;-79
2024/04/04 04:23:37;;;;;;;;;0.75;0.75;;;;;14.94;92.28;100381.25;5094607;27;45695;-79
2024/04/04 04:26:03;;;;;;;;;1.00;0.25;;;;;14.97;92.36;100400.75;5097007;27;45183;-79
2024/04/04 04:28:28;;;;;;;;;2.00;1.00;;;;;14.94;92.57;100384.81;5096468;27;45640;-78
2024/04/04 04:30:54;;;;;;;;;2.00;1.00;;;;;15.01;92.16;100388.88;5091257;27;58112;-79
2024/04/04 04:33:19;;;;;;;;;1.00;1.00;;;;;14.95;92.12;100389.25;5101552;27;45455;-79
2024/04/04 04:35:45;;;;;;;;;1.00;1.00;;;;;14.88;92.34;100384.28;5102035;27;45333;-79
2024/04/04 04:38:10;;;;;;;;;1.00;1.00;;;;;14.96;92.47;100404.38;5096899;27;45399;-79
2024/04/04 04:40:40;;;;;;;;;2.50;0.50;;;;;14.99;92.46;100414.13;5101582;27;45727;-79
2024/04/04 04:43:06;;;;;;;;;0.00;0.00;;;;;14.85;92.29;100385.34;5101721;27;46312;-79
2024/04/04 04:45:31;;;;;;;;;1.25;1.25;;;;;14.94;92.27;100414.38;5100653;27;45266;-79
2024/04/04 04:47:57;;;;;;;;;1.00;1.00;;;;;14.94;92.73;100403.63;5094037;27;58352;-79
2024/04/04 04:50:22;;;;;;;;;1.00;1.00;;;;;14.90;92.71;100396.69;5101665;27;45245;-79
2024/04/04 04:52:47;;;;;;;;;2.00;1.50;;;;;14.84;92.64;100396.16;5087631;27;45397;-79
2024/04/04 04:55:14;;;;;;;;;2.75;1.25;;;;;14.92;92.64;100408.22;5090077;27;60115;-79
2024/04/04 04:57:39;;;;;;;;;1.25;0.25;;;;;14.88;92.36;100401.25;5101356;27;45348;-79
2024/04/04 05:00:09;;;;;;;;;0.00;0.00;;;;;14.95;92.60;100416.13;5100990;27;45304;-79
2024/04/04 05:02:35;;;;;;;;;2.50;1.00;;;;;14.98;92.74;100415.06;5067362;27;47611;-79
2024/04/04 05:05:13;;;;;;;;;0.25;0.00;;;;;14.93;92.47;100420.69;5098249;27;45254;-78
2024/04/04 05:07:38;;;;;;;;;1.75;0.75;;;;;14.91;93.06;100411.84;5092971;27;45325;-79
2024/04/04 05:10:04;;;;;;;;;0.75;0.75;;;;;14.86;93.00;100402.31;5100960;27;45456;-79
2024/04/04 05:12:30;;;;;;;;;2.00;0.75;;;;;14.89;93.36;100413.75;5100536;27;45510;-79
2024/04/04 05:14:55;;;;;;;;;2.00;0.25;;;;;14.82;93.38;100412.38;5101450;27;45396;-79
2024/04/04 05:17:20;;;;;;;;;1.75;1.00;;;;;14.94;92.64;100435.00;5086591;27;56704;-79
2024/04/04 05:19:45;;;;;;;;;1.00;1.00;;;;;14.93;93.33;100442.19;5093427;27;45474;-79
2024/04/04 05:22:11;;;;;;;;;1.00;0.50;;;;;14.94;93.02;100459.19;5095133;27;49847;-79
2024/04/04 05:24:36;;;;;;;;;2.00;1.00;;;;;14.84;93.49;100455.28;5094870;27;47249;-79
2024/04/04 05:27:01;;;;;;;;;3.00;2.00;;;;;14.93;93.65;100462.81;5100325;27;49401;-79
2024/04/04 05:29:27;;;;;;;;;0.25;0.25;;;;;14.89;93.73;100458.59;5089139;27;45457;-78
2024/04/04 05:31:52;;;;;;;;;1.00;1.00;;;;;14.84;94.08;100461.50;5095652;27;65844;-78
2024/04/04 05:34:17;;;;;;;;;1.25;1.00;;;;;14.92;93.95;100485.28;5090993;27;45423;-78
2024/04/04 05:36:42;;;;;;;;;0.00;0.00;;;;;14.80;94.17;100460.81;5097170;27;45368;-80
2024/04/04 05:39:08;;;;;;;;;0.25;0.25;;;;;14.90;94.16;100479.13;5099471;27;45261;-79
2024/04/04 05:41:34;;;;;;;;;2.00;0.00;;;;;14.94;94.35;100480.69;5086707;27;56592;-79
2024/04/04 05:43:59;;;;;;;;;1.00;1.00;;;;;14.89;94.49;100477.41;5101054;27;45183;-79
2024/04/04 05:46:25;;;;;;;;;0.75;0.75;;;;;14.93;94.34;100492.38;5099897;27;45361;-79
2024/04/04 05:48:51;;;;;;;;;1.00;1.00;;;;;14.93;93.69;100487.00;5078215;27;45356;-79
2024/04/04 05:51:17;;;;;;;;;2.00;2.00;;;;;14.90;93.54;100492.56;5097345;27;48124;-79
2024/04/04 05:53:42;;;;;;;;;0.00;0.00;;;;;14.95;93.76;100511.97;5093660;27;45199;-80
2024/04/04 05:56:07;;;;;;;;;2.00;1.00;;;;;14.93;93.93;100517.44;5100676;27;45726;-79
2024/04/04 05:58:33;;;;;;;;;0.75;0.00;;;;;14.89;93.07;100505.13;5100788;27;45589;-79
2024/04/04 06:00:58;;;;;;;;;0.00;0.00;;;;;14.90;93.04;100512.25;5088368;27;46474;-79
2024/04/04 06:03:23;;;;;;;;;1.25;0.25;;;;;14.86;92.86;100507.13;5100317;27;45390;-78
2024/04/04 06:05:50;;;;;;;;;0.00;0.00;;;;;14.84;92.82;100517.09;5088658;27;45294;-78
2024/04/04 06:08:15;;;;;;;;;0.75;0.75;;;;;14.87;93.08;100527.66;5085493;27;45446;-79
2024/04/04 06:10:40;;;;;;;;;0.00;0.00;;;;;14.88;92.73;100526.72;5099925;27;45342;-79
2024/04/04 06:13:06;;;;;;;;;0.00;0.00;;;;;14.86;92.34;100523.25;5099170;27;63363;-78
2024/04/04 06:15:31;;;;;;;;;0.00;0.00;;;;;14.86;92.39;100507.97;5100414;27;45536;-78
2024/04/04 06:17:57;;;;;;;;;1.50;0.50;;;;;14.86;92.52;100507.13;5098792;27;45337;-78
2024/04/04 06:20:23;;;;;;;;;0.00;0.00;;;;;14.84;92.25;100512.56;5097770;27;45441;-78
2024/04/04 06:22:49;;;;;;;;;1.00;1.00;;;;;14.84;92.45;100512.56;5100263;27;45412;-79
2024/04/04 06:25:16;;;;;;;;;1.00;0.00;;;;;14.80;92.26;100501.13;5092735;27;45212;-78
2024/04/04 06:27:41;;;;;;;;;0.75;0.00;;;;;14.86;92.17;100504.44;5096792;27;45296;-79
2024/04/04 06:30:07;;;;;;;;;0.00;0.00;;;;;14.78;91.97;100492.28;5095057;27;59242;-78
2024/04/04 06:32:32;;;;;;;;;0.00;0.00;;;;;14.76;91.51;100498.69;5099626;27;45246;-78
2024/04/04 06:34:58;;;;;;;;;0.00;0.00;;;;;14.67;92.12;100483.03;5098574;27;45401;-78
2024/04/04 06:37:23;;;;;;;;;0.75;0.00;;;;;14.75;92.12;100502.31;5099796;27;45444;-79
2024/04/04 06:39:48;;;;;;;;;0.00;0.00;;;;;14.71;92.00;100490.84;5099544;27;45234;-79
2024/04/04 06:42:14;;;;;;;;;0.50;0.00;;;;;14.72;91.88;100487.22;5099763;27;45456;-79
2024/04/04 06:44:39;;;;;;;;;0.00;0.00;;;;;14.72;91.84;100487.22;5099764;27;45234;-79
2024/04/04 06:47:04;;;;;;;;;1.00;0.00;;;;;14.61;92.12;100465.44;5098906;27;45531;-79
2024/04/04 06:49:30;;;;;;;;;0.00;0.00;;;;;14.71;91.76;100487.31;5098245;27;46674;-79
2024/04/04 06:51:55;;;;;;;;;0.50;0.00;;;;;14.69;92.04;100497.28;5097921;27;45425;-79
2024/04/04 06:54:21;;;;;;;;;0.00;0.00;;;;;14.68;91.95;100501.75;5082194;27;45333;-79
2024/04/04 06:56:46;;;;;;;;;0.00;0.00;;;;;14.63;92.39;100488.59;5081568;27;45550;-79
2024/04/04 06:59:12;;;;;;;;;1.00;0.00;;;;;14.61;92.07;100487.78;5098006;27;48250;-79
2024/04/04 07:01:37;;;;;;;;;1.00;1.00;;;;;14.65;92.17;100499.28;5089709;27;57344;-79
2024/04/04 07:04:03;;;;;;;;;2.00;1.00;;;;;14.58;92.48;100496.00;5097418;27;48680;-78
2024/04/04 07:06:29;;;;;;;;;5.00;4.00;;;;;14.53;92.56;100489.13;5097078;27;45482;-78
2024/04/04 07:08:54;;;;;;;;;0.75;0.00;;;;;14.58;92.45;100496.00;5076330;27;47320;-78
2024/04/04 07:11:20;;;;;;;;;1.00;0.50;;;;;14.53;92.40;100495.34;5097428;27;45545;-78
2024/04/04 07:13:46;;;;;;;;;0.00;0.00;;;;;14.52;92.75;100507.06;5093378;27;45230;-78
2024/04/04 07:16:12;;;;;;;;;2.00;1.00;;;;;14.50;92.77;100502.72;5070484;27;45421;-79
2024/04/04 07:18:37;;;;;;;;;0.00;0.00;;;;;14.45;92.88;100497.59;5091415;27;45983;-78
2024/04/04 07:21:03;;;;;;;;;0.00;0.00;;;;;14.39;93.81;100501.47;5094725;27;45362;-78
2024/04/04 07:23:29;;;;;;;;;0.25;0.25;;;;;14.41;93.26;100507.59;5098954;27;45333;-78
2024/04/04 07:25:56;;;;;;;;;1.50;1.00;;;;;14.49;93.27;100511.72;5085474;27;45313;-78
2024/04/04 07:28:21;;;;;;;;;0.00;0.00;;;;;14.44;93.57;100503.91;5091040;27;45349;-78
2024/04/04 07:30:47;;;;;;;;;1.50;1.50;;;;;14.44;93.85;100520.03;5097082;27;45422;-78
2024/04/04 07:33:13;;;;;;;;;0.00;0.00;;;;;14.51;93.49;100531.31;5087975;27;45384;-78
2024/04/04 07:35:39;;;;;;;;;0.00;0.00;;;;;14.46;93.72;100534.22;5097744;27;45441;-78
2024/04/04 07:38:06;;;;;;;;;3.00;1.00;;;;;14.51;94.03;100536.69;5093276;27;46622;-78
2024/04/04 07:40:38;;;;;;;;;2.00;1.00;;;;;14.49;93.92;100549.34;5092621;27;45552;-78
2024/04/04 07:43:06;;;;;;;;;1.75;1.50;;;;;14.52;94.04;100560.78;5097007;27;46257;-78
2024/04/04 07:45:35;;;;;;;;;0.50;0.50;;;;;14.56;93.90;100562.34;5093106;27;45398;-78
2024/04/04 07:48:00;;;;;;;;;0.50;0.50;;;;;14.56;94.06;100558.81;5087286;27;46374;-78
2024/04/04 07:50:27;;;;;;;;;1.00;1.00;;;;;14.53;94.00;100565.19;5097314;27;45356;-78
2024/04/04 07:52:52;;;;;;;;;0.50;0.50;;;;;14.60;93.72;100608.75;5101031;27;45497;-78
2024/04/04 07:55:18;;;;;;;;;0.00;0.00;;;;;14.60;94.30;100606.06;5086349;27;45330;-78
2024/04/04 07:57:44;;;;;;;;;2.00;0.00;;;;;14.58;94.42;100602.56;5089688;27;45371;-78
2024/04/04 08:00:13;;;;;;;;;0.50;0.50;;;;;14.52;93.57;100593.00;5089229;27;45272;-78
2024/04/04 08:02:39;;;;;;;;;0.00;0.00;;;;;14.43;92.22;100599.72;5088275;27;45250;-79
2024/04/04 08:05:04;;;;;;;;;0.25;0.25;;;;;14.43;91.87;100631.97;5097890;27;45392;-79
2024/04/04 08:07:35;;;;;;;;;0.75;0.00;;;;;14.41;91.63;100624.91;5095379;27;45984;-79
2024/04/04 08:10:05;;;;;;;;;0.00;0.00;;;;;14.32;91.22;100602.06;5099193;27;45286;-79
2024/04/04 08:12:31;;;;;;;;;0.00;0.00;;;;;14.30;90.23;100603.97;5100971;27;45436;-79
2024/04/04 08:14:56;;;;;;;;;0.00;0.00;;;;;14.24;89.82;100594.41;5100511;27;45432;-79
2024/04/04 08:17:21;;;;;;;;;0.00;0.00;;;;;14.18;90.23;100583.09;5079581;27;46063;-78
2024/04/04 08:19:47;;;;;;;;;0.00;0.00;;;;;14.18;89.56;100593.84;5101347;27;45488;-78
2024/04/04 08:22:13;;;;;;;;;1.00;0.00;;;;;14.11;90.18;100577.16;5096297;27;45326;-78
2024/04/04 08:24:38;;;;;;;;;0.00;0.00;;;;;14.05;89.72;100583.72;5078438;27;45436;-78
2024/04/04 08:27:04;;;;;;;;;0.00;0.00;;;;;14.08;90.10;100596.09;5078144;27;47375;-78
2024/04/04 08:29:30;;;;;;;;;0.00;0.00;;;;;14.07;89.89;100589.00;5097636;27;45306;-78
2024/04/04 08:31:55;;;;;;;;;0.00;0.00;;;;;14.05;89.91;100585.53;5096948;27;45273;-78
2024/04/04 08:34:20;;;;;;;;;0.00;0.00;;;;;13.94;89.79;100578.00;5097568;27;45404;-78
2024/04/04 08:36:45;;;;;;;;;0.00;0.00;;;;;14.01;90.23;100581.25;5077374;27;47014;-78
2024/04/04 08:39:11;;;;;;;;;0.00;0.00;;;;;13.90;90.47;100589.84;5078274;27;45628;-78
2024/04/04 08:41:39;;;;;;;;;1.00;0.00;;;;;13.87;90.71;100581.94;5099134;27;45338;-78
2024/04/04 08:44:05;;;;;;;;;0.00;0.00;;;;;13.76;91.05;100571.72;5100071;27;45465;-78
2024/04/04 08:46:34;;;;;;;;;1.00;0.00;;;;;13.83;91.11;100594.63;5094225;27;45586;-78
2024/04/04 08:49:01;;;;;;;;;0.50;0.00;;;;;13.80;91.66;100569.75;5075087;27;45684;-78
2024/04/04 08:51:27;;;;;;;;;0.00;0.00;;;;;13.73;91.90;100571.84;5084034;27;45672;-78
2024/04/04 08:53:52;;;;;;;;;1.00;0.00;;;;;13.77;91.96;100594.91;5088210;27;45258;-78
2024/04/04 08:56:18;;;;;;;;;0.00;0.00;;;;;13.78;92.00;100587.72;5085891;27;45686;-78
2024/04/04 08:58:43;;;;;;;;;0.50;0.00;;;;;13.80;91.71;100596.56;5086774;27;45338;-78
2024/04/04 09:01:09;;;;;;;;;0.00;0.00;;;;;13.82;92.38;100578.59;5085970;27;48581;-78
2024/04/04 09:03:34;;;;;;;;;0.00;0.00;;;;;13.76;92.65;100586.94;5080407;27;45490;-78
2024/04/04 09:06:00;;;;;;;;;0.75;0.00;;;;;13.80;93.09;100600.16;5094059;27;46164;-77
2024/04/04 09:08:29;;;;;;;;;0.00;0.00;;;;;13.83;92.74;100604.47;5086167;27;45496;-77
2024/04/04 09:11:00;;;;;;;;;0.75;0.00;;;;;13.74;93.02;100580.78;5081830;27;45345;-77
2024/04/04 09:13:26;;;;;;;;;1.00;0.00;;;;;13.80;92.85;100604.63;5085464;27;45450;-77
2024/04/04 09:15:59;;;;;;;;;1.00;0.00;;;;;13.88;92.42;100599.75;5093348;27;47305;-78
2024/04/04 09:18:24;;;;;;;;;1.00;0.00;;;;;13.83;92.56;100583.91;5096882;27;45564;-77
2024/04/04 09:20:50;;;;;;;;;0.00;0.00;;;;;13.88;92.58;100597.06;5091636;27;45853;-77
2024/04/04 09:23:15;;;;;;;;;0.00;0.00;;;;;13.92;93.27;100612.09;5083939;27;48956;-78
2024/04/04 09:25:41;;;;;;;;;0.00;0.00;;;;;13.89;93.71;100610.41;5084214;27;45995;-78
2024/04/04 09:28:08;;;;;;;;;0.00;0.00;;;;;13.97;93.66;100612.75;5090600;27;45595;-78
2024/04/04 09:30:35;;;;;;;;;1.00;0.00;;;;;13.93;94.27;100588.81;5098146;27;45519;-78
2024/04/04 09:33:01;;;;;;;;;0.00;0.00;;;;;14.02;95.06;100588.38;5093538;27;45640;-77
2024/04/04 09:35:28;;;;;;;;;0.00;0.00;;;;;14.02;95.83;100591.06;5099836;27;47362;-78
2024/04/04 09:37:54;;;;;;;;;0.50;0.50;;;;;14.08;96.10;100598.78;5097990;27;45511;-78
2024/04/04 09:40:20;;;;;;;;;1.00;0.00;;;;;14.04;96.10;100590.00;5097686;27;45616;-78
2024/04/04 09:42:46;;;;;;;;;0.00;0.00;;;;;14.16;95.46;100611.84;5096754;27;45621;-78
2024/04/04 09:45:13;;;;;;;;;0.00;0.00;;;;;14.17;95.44;100601.03;5089783;27;46075;-78
2024/04/04 09:47:46;;;;;;;;;0.00;0.00;;;;;14.18;95.67;100594.72;5096102;27;45541;-78
2024/04/04 09:50:14;;;;;;;;;2.00;1.00;;;;;14.27;95.88;100601.44;5098322;27;45427;-78
2024/04/04 09:52:40;;;;;;;;;1.25;1.00;;;;;14.26;96.06;100599.69;5076308;27;45445;-78
2024/04/04 09:55:18;;;;;;;;;1.00;1.00;;;;;14.26;96.33;100602.38;5098279;27;45494;-78
2024/04/04 09:57:44;;;;;;;;;1.00;1.00;;;;;14.30;96.82;100603.97;5097271;27;45527;-78
2024/04/04 10:00:18;;;;;;;;;2.75;2.75;;;;;14.33;97.42;100611.84;5098397;27;45289;-78
2024/04/04 10:02:56;;;;;;;;;3.50;3.00;;;;;14.36;97.73;100613.53;5098272;27;45294;-78
2024/04/04 10:05:23;;;;;;;;;1.50;1.00;;;;;14.40;98.42;100609.72;5095675;27;46194;-78
2024/04/04 10:07:49;;;;;;;;;2.00;1.00;;;;;14.45;99.07;100613.09;5097540;27;45674;-78
2024/04/04 10:10:16;;;;;;;;;1.25;1.25;;;;;14.48;99.44;100618.28;5096057;27;45602;-77
2024/04/04 10:12:48;;;;;;;;;4.25;1.25;;;;;14.51;99.38;100611.88;5092867;27;45480;-77
2024/04/04 10:15:22;;;;;;;;;2.75;2.25;;;;;14.60;99.93;100616.81;5096816;27;48916;-77
2024/04/04 10:17:54;;;;;;;;;3.25;1.00;;;;;14.65;99.87;100606.72;5085618;27;45443;-77
2024/04/04 10:20:23;;;;;;;;;4.75;3.25;;;;;14.66;99.96;100600.38;5092310;27;45715;-77
2024/04/04 10:22:58;;;;;;;;;5.00;2.75;;;;;14.75;100.00;100599.03;5087427;27;45512;-78
2024/04/04 10:25:24;;;;;;;;;5.00;3.00;;;;;14.80;100.00;100608.59;5095248;27;46124;-78
2024/04/04 10:27:50;;;;;;;;;1.50;1.50;;;;;14.82;100.00;100601.31;5075668;28;45433;-80
2024/04/04 10:30:18;;;;;;;;;7.25;3.00;;;;;14.87;100.00;100602.88;5097101;27;45455;-79
2024/04/04 10:32:44;;;;;;;;;4.50;3.50;;;;;14.92;100.00;100603.56;5075453;27;45495;-79
2024/04/04 10:35:09;;;;;;;;;5.50;3.50;;;;;14.96;100.00;100610.47;5098351;27;45418;-79
2024/04/04 10:37:34;;;;;;;;;4.50;3.25;;;;;15.00;100.00;100623.69;5092315;27;61309;-79
2024/04/04 10:39:59;;;;;;;;;7.00;3.00;;;;;14.91;100.00;100591.91;5098473;27;48240;-79
2024/04/04 10:42:25;;;;;;;;;5.75;5.75;;;;;15.03;100.00;100609.19;5097535;27;45332;-79
2024/04/04 10:44:54;;;;;;;;;6.00;3.50;;;;;15.11;99.85;100622.25;5088171;27;46366;-79
2024/04/04 10:47:24;;;;;;;;;3.75;3.00;;;;;14.99;100.00;100595.06;5092541;27;45692;-79
2024/04/04 10:49:49;;;;;;;;;5.25;4.00;;;;;15.11;100.00;100601.59;5094277;27;45408;-79
2024/04/04 10:52:17;;;;;;;;;4.00;3.25;;;;;15.21;100.00;100595.75;5094910;27;45472;-79
2024/04/04 10:54:43;;;;;;;;;4.25;4.00;;;;;15.17;100.00;100586.97;5093520;27;46060;-79
2024/04/04 10:57:08;;;;;;;;;4.50;3.50;;;;;15.32;100.00;100598.72;5097627;27;45394;-80
2024/04/04 10:59:34;;;;;;;;;4.00;4.00;;;;;15.29;100.00;100572.84;5097176;27;45313;-78
2024/04/04 11:02:19;;;;;;;;;3.50;3.00;;;;;15.38;100.00;100590.28;5080384;27;45663;-79
2024/04/04 11:04:48;;;;;;;;;3.75;3.00;;;;;15.40;100.00;100576.78;5096965;27;47151;-79
2024/04/04 11:07:14;;;;;;;;;7.00;3.50;;;;;15.47;99.85;100578.16;5085674;27;45851;-79
2024/04/04 11:09:40;;;;;;;;;5.25;4.00;;;;;15.49;100.00;100582.50;5090443;27;46409;-78
2024/04/04 11:12:06;;;;;;;;;3.75;3.00;;;;;15.57;100.00;100574.03;5090472;27;45342;-79
2024/04/04 11:14:31;;;;;;;;;5.50;2.75;;;;;15.51;99.13;100560.91;5096735;27;45317;-79
2024/04/04 11:16:57;;;;;;;;;6.00;4.25;;;;;15.65;98.48;100577.16;5094662;27;45703;-79
2024/04/04 11:19:23;;;;;;;;;4.75;3.50;;;;;15.66;98.17;100564.56;5096774;27;45531;-79
2024/04/04 11:21:50;;;;;;;;;6.00;3.00;;;;;15.73;97.73;100587.47;5095433;27;45487;-79